createdAt,value
2022-12-04T00:01:57.712Z,74.61
2022-12-04T00:04:25.605Z,74.03
2022-12-04T00:06:58.853Z,73.66
2022-12-04T00:09:27.432Z,73.80
2022-12-04T00:11:56.559Z,74.69
2022-12-04T00:14:24.689Z,73.06
2022-12-04T00:16:52.555Z,73.46
2022-12-04T00:19:20.474Z,74.74
2022-12-04T00:21:50.864Z,74.02
2022-12-04T00:24:18.745Z,73.76
2022-12-04T00:26:46.481Z,74.91
2022-12-04T00:29:15.635Z,74.61
2022-12-04T00:31:43.425Z,74.76
2022-12-04T00:34:11.219Z,74.10
2022-12-04T00:36:38.985Z,74.80
2022-12-04T00:39:07.696Z,75.67
2022-12-04T00:41:35.604Z,74.97
2022-12-04T00:44:04.459Z,75.19
2022-12-04T00:46:33.538Z,75.10
2022-12-04T00:49:02.684Z,74.64
2022-12-04T00:51:31.598Z,74.81
2022-12-04T00:53:59.416Z,74.91
2022-12-04T00:56:29.946Z,75.17
2022-12-04T00:59:01.120Z,75.05
2022-12-04T01:01:30.885Z,76.12
2022-12-04T01:04:00.197Z,76.36
2022-12-04T01:06:31.392Z,75.26
2022-12-04T01:09:01.620Z,75.42
2022-12-04T01:11:31.024Z,75.99
2022-12-04T01:14:00.424Z,76.42
2022-12-04T01:16:32.040Z,75.26
2022-12-04T01:19:01.806Z,77.04
2022-12-04T01:21:29.777Z,75.94
2022-12-04T01:23:58.150Z,76.03
2022-12-04T01:26:26.003Z,76.33
2022-12-04T01:28:53.866Z,76.29
2022-12-04T01:31:23.185Z,77.39
2022-12-04T01:33:52.469Z,78.66
2022-12-04T01:36:25.467Z,78.37
2022-12-04T01:38:53.297Z,78.05
2022-12-04T01:41:26.252Z,78.21
2022-12-04T01:44:16.648Z,78.15
2022-12-04T01:46:47.043Z,76.77
2022-12-04T01:49:20.566Z,77.10
2022-12-04T01:51:54.086Z,77.26
2022-12-04T01:54:28.418Z,77.10
2022-12-04T01:57:02.755Z,77.23
2022-12-04T01:59:36.559Z,77.75
2022-12-04T02:02:09.335Z,77.61
2022-12-04T02:04:39.557Z,77.42
2022-12-04T02:07:09.154Z,77.74
2022-12-04T02:09:39.567Z,77.66
2022-12-04T02:12:22.086Z,76.38
2022-12-04T02:15:01.104Z,76.54
2022-12-04T02:17:39.608Z,77.01
2022-12-04T02:20:23.865Z,77.37
2022-12-04T02:23:24.799Z,78.41
2022-12-04T02:26:10.561Z,77.98
2022-12-04T02:28:50.767Z,77.69
2022-12-04T02:31:25.195Z,76.63
2022-12-04T02:34:02.272Z,76.68
2022-12-04T02:36:37.004Z,75.95
2022-12-04T02:39:15.619Z,76.45
2022-12-04T02:41:54.283Z,76.59
2022-12-04T02:44:28.793Z,76.88
2022-12-04T02:47:02.469Z,75.71
2022-12-04T02:49:38.957Z,75.79
2022-12-04T02:52:12.940Z,76.13
2022-12-04T02:54:47.092Z,75.71
2022-12-04T02:57:22.462Z,75.79
2022-12-04T02:59:56.338Z,76.18
2022-12-04T03:02:34.445Z,76.30
2022-12-04T03:07:47.183Z,75.52
2022-12-04T03:10:20.293Z,75.79
2022-12-04T03:12:55.498Z,75.39
2022-12-04T03:15:31.072Z,76.12
2022-12-04T03:18:08.316Z,76.55
2022-12-04T03:20:39.667Z,76.29
2022-12-04T03:23:15.069Z,75.65
2022-12-04T03:25:57.947Z,75.76
2022-12-04T03:28:35.705Z,75.75
2022-12-04T03:31:10.543Z,76.39
2022-12-04T03:33:44.420Z,75.32
2022-12-04T03:36:19.394Z,75.65
2022-12-04T03:38:56.324Z,76.45
2022-12-04T03:41:32.241Z,76.85
2022-12-04T03:44:09.902Z,77.24
2022-12-04T03:46:46.803Z,77.07
2022-12-04T03:49:24.256Z,76.56
2022-12-04T03:52:00.196Z,76.96
2022-12-04T03:54:34.663Z,76.43
2022-12-04T03:57:10.044Z,75.82
2022-12-04T03:59:47.986Z,76.32
2022-12-04T04:02:25.324Z,76.92
2022-12-04T04:05:01.747Z,76.00
2022-12-04T04:07:39.072Z,77.45
2022-12-04T04:10:15.108Z,76.75
2022-12-04T04:13:11.778Z,76.74
2022-12-04T04:16:03.403Z,76.82
2022-12-04T04:18:51.834Z,76.99
2022-12-04T04:21:44.467Z,77.75
2022-12-04T04:24:26.853Z,77.91
2022-12-04T04:26:58.999Z,76.62
2022-12-04T04:29:27.589Z,77.21
2022-12-04T04:32:07.823Z,77.90
2022-12-04T04:34:50.703Z,78.18
2022-12-04T04:37:35.125Z,78.61
2022-12-04T04:40:10.636Z,78.04
2022-12-04T04:42:49.511Z,77.88
2022-12-04T04:45:24.462Z,78.34
2022-12-04T04:47:59.451Z,77.73
2022-12-04T04:50:31.209Z,77.58
2022-12-04T04:53:06.177Z,78.46
2022-12-04T04:55:37.099Z,78.53
2022-12-04T04:58:10.736Z,78.21
2022-12-04T05:00:40.147Z,77.85
2022-12-04T05:03:08.182Z,77.45
2022-12-04T05:05:37.337Z,77.94
2022-12-04T05:08:05.570Z,78.54
2022-12-04T05:10:33.395Z,77.89
2022-12-04T05:13:01.163Z,78.03
2022-12-04T05:15:28.915Z,77.59
2022-12-04T05:17:56.689Z,78.20
2022-12-04T05:20:24.405Z,79.38
2022-12-04T05:22:53.463Z,78.46
2022-12-04T05:25:21.244Z,77.91
2022-12-04T05:27:49.042Z,78.62
2022-12-04T05:30:17.506Z,78.40
2022-12-04T05:32:45.503Z,77.89
2022-12-04T05:35:13.413Z,78.72
2022-12-04T05:37:41.961Z,78.04
2022-12-04T05:40:12.286Z,78.57
2022-12-04T05:42:40.232Z,79.23
2022-12-04T05:45:09.283Z,79.18
2022-12-04T05:47:40.108Z,78.68
2022-12-04T05:50:12.369Z,79.36
2022-12-04T05:52:40.473Z,78.10
2022-12-04T05:55:09.232Z,79.27
2022-12-04T05:57:38.373Z,78.82
2022-12-04T06:00:08.390Z,78.63
2022-12-04T06:02:36.274Z,78.71
2022-12-04T06:05:05.019Z,78.19
2022-12-04T06:07:33.234Z,78.47
2022-12-04T06:10:01.034Z,77.38
2022-12-04T06:12:30.413Z,78.44
2022-12-04T06:14:59.851Z,78.98
2022-12-04T06:17:27.965Z,78.67
2022-12-04T06:19:56.335Z,78.65
2022-12-04T06:22:24.403Z,78.23
2022-12-04T06:24:52.303Z,77.97
2022-12-04T06:27:28.344Z,78.97
2022-12-04T06:29:56.904Z,78.37
2022-12-04T06:32:26.214Z,78.85
2022-12-04T06:34:55.356Z,78.04
2022-12-04T06:37:25.840Z,78.27
2022-12-04T06:39:53.852Z,77.84
2022-12-04T06:42:21.814Z,78.12
2022-12-04T06:44:50.342Z,78.65
2022-12-04T06:47:18.371Z,78.44
2022-12-04T06:49:51.364Z,78.87
2022-12-04T06:52:19.397Z,77.95
2022-12-04T06:54:47.128Z,78.52
2022-12-04T06:57:14.853Z,78.51
2022-12-04T06:59:43.000Z,78.16
2022-12-04T07:02:11.874Z,78.54
2022-12-04T07:04:39.597Z,78.88
2022-12-04T07:07:11.043Z,78.52
2022-12-04T07:09:39.144Z,78.46
2022-12-04T07:12:07.973Z,79.41
2022-12-04T07:14:35.853Z,79.25
2022-12-04T07:17:03.644Z,79.45
2022-12-04T07:19:31.569Z,80.00
2022-12-04T07:21:59.356Z,80.41
2022-12-04T07:24:28.539Z,79.81
2022-12-04T07:26:56.556Z,79.64
2022-12-04T07:29:24.330Z,80.33
2022-12-04T07:31:52.144Z,80.03
2022-12-04T07:34:19.859Z,79.70
2022-12-04T07:36:47.588Z,80.43
2022-12-04T07:39:15.337Z,78.74
2022-12-04T07:41:44.463Z,79.47
2022-12-04T07:44:12.235Z,78.75
2022-12-04T07:46:40.139Z,79.55
2022-12-04T07:49:07.891Z,79.84
2022-12-04T07:51:35.704Z,79.06
2022-12-04T07:54:04.490Z,79.16
2022-12-04T07:56:33.331Z,78.36
2022-12-04T07:59:03.147Z,77.94
2022-12-04T08:01:32.400Z,78.31
2022-12-04T08:04:03.216Z,78.60
2022-12-04T08:06:34.903Z,79.60
2022-12-04T08:09:09.165Z,78.40
2022-12-04T08:11:37.461Z,78.53
2022-12-04T08:14:09.583Z,78.04
2022-12-04T08:16:37.508Z,77.59
2022-12-04T08:19:05.875Z,76.91
2022-12-04T08:21:34.526Z,77.76
2022-12-04T08:24:03.783Z,77.98
2022-12-04T08:26:33.467Z,77.95
2022-12-04T08:29:02.501Z,76.58
2022-12-04T08:31:41.865Z,76.88
2022-12-04T08:34:09.818Z,77.38
2022-12-04T08:36:37.775Z,77.66
2022-12-04T08:39:06.054Z,76.74
2022-12-04T08:41:33.981Z,76.08
2022-12-04T08:44:01.904Z,75.91
2022-12-04T08:46:30.280Z,75.26
2022-12-04T08:48:59.926Z,75.73
2022-12-04T08:51:31.641Z,76.18
2022-12-04T08:54:02.967Z,75.91
2022-12-04T08:56:32.494Z,75.15
2022-12-04T08:59:01.138Z,76.24
2022-12-04T09:01:30.525Z,77.57
2022-12-04T09:03:59.883Z,77.12
2022-12-04T09:06:27.805Z,76.29
2022-12-04T09:09:02.146Z,77.02
2022-12-04T09:11:32.301Z,77.51
2022-12-04T09:14:02.096Z,76.96
2022-12-04T09:16:30.628Z,77.29
2022-12-04T09:18:59.839Z,76.31
2022-12-04T09:21:39.619Z,75.96
2022-12-04T09:24:17.963Z,75.12
2022-12-04T09:26:45.704Z,75.74
2022-12-04T09:29:13.681Z,75.71
2022-12-04T09:31:41.710Z,75.41
2022-12-04T09:34:10.787Z,76.44
2022-12-04T09:36:39.213Z,76.88
2022-12-04T09:39:07.120Z,76.13
2022-12-04T09:42:06.068Z,76.29
2022-12-04T09:44:41.537Z,77.17
2022-12-04T09:47:24.877Z,76.47
2022-12-04T09:50:52.434Z,76.44
2022-12-04T09:53:28.604Z,77.31
2022-12-04T09:56:05.888Z,77.10
2022-12-04T09:58:43.627Z,76.58
2022-12-04T10:01:24.098Z,76.85
2022-12-04T10:03:54.986Z,76.54
2022-12-04T10:06:26.172Z,77.63
2022-12-04T10:09:05.092Z,76.44
2022-12-04T10:11:49.612Z,77.51
2022-12-04T10:14:47.579Z,77.42
2022-12-04T10:17:33.055Z,75.54
2022-12-04T10:20:49.840Z,75.20
2022-12-04T10:23:39.277Z,75.77
2022-12-04T10:26:16.205Z,76.97
2022-12-04T10:29:17.825Z,77.40
2022-12-04T10:31:49.063Z,76.21
2022-12-04T10:34:22.383Z,75.90
2022-12-04T10:36:54.393Z,76.40
2022-12-04T10:39:28.412Z,75.61
2022-12-04T10:42:05.095Z,76.29
2022-12-04T10:44:34.532Z,76.90
2022-12-04T10:47:06.023Z,77.41
2022-12-04T10:49:38.328Z,77.38
2022-12-04T10:52:07.840Z,76.60
2022-12-04T10:54:40.754Z,76.52
2022-12-04T10:57:13.789Z,77.90
2022-12-04T10:59:50.602Z,78.54
2022-12-04T11:02:24.010Z,78.04
2022-12-04T11:04:58.687Z,78.17
2022-12-04T11:07:30.355Z,76.77
2022-12-04T11:10:03.603Z,76.86
2022-12-04T11:12:33.535Z,76.83
2022-12-04T11:15:12.888Z,77.50
2022-12-04T11:17:41.218Z,78.50
2022-12-04T11:20:20.353Z,77.79
2022-12-04T11:22:53.309Z,78.16
2022-12-04T11:25:24.915Z,78.42
2022-12-04T11:28:00.512Z,78.19
2022-12-04T11:30:35.293Z,78.38
2022-12-04T11:33:16.241Z,77.93
2022-12-04T11:35:44.161Z,79.13
2022-12-04T11:38:17.642Z,78.51
2022-12-04T11:40:49.453Z,77.50
2022-12-04T11:43:20.325Z,77.33
2022-12-04T11:45:56.509Z,76.55
2022-12-04T11:48:24.527Z,76.97
2022-12-04T11:51:06.471Z,77.20
2022-12-04T11:53:49.266Z,76.97
2022-12-04T11:56:28.077Z,78.26
2022-12-04T11:59:26.216Z,77.08
2022-12-04T12:02:12.404Z,78.18
2022-12-04T12:05:03.632Z,76.16
2022-12-04T12:07:43.876Z,76.95
2022-12-04T12:10:26.227Z,76.43
2022-12-04T12:13:05.715Z,76.93
2022-12-04T12:15:47.493Z,76.69
2022-12-04T12:18:36.057Z,76.00
2022-12-04T12:21:17.339Z,76.58
2022-12-04T12:24:09.539Z,76.01
2022-12-04T12:26:52.175Z,76.41
2022-12-04T12:29:39.230Z,76.82
2022-12-04T12:32:27.168Z,77.30
2022-12-04T12:34:55.864Z,77.24
2022-12-04T12:37:32.164Z,78.12
2022-12-04T12:40:08.687Z,76.66
2022-12-04T12:42:48.245Z,76.69
2022-12-04T12:45:27.876Z,77.93
2022-12-04T12:48:06.023Z,77.57
2022-12-04T12:50:45.285Z,77.91
2022-12-04T12:53:21.894Z,76.60
2022-12-04T12:55:54.833Z,77.13
2022-12-04T12:58:31.699Z,76.40
2022-12-04T13:01:07.376Z,76.50
2022-12-04T13:03:49.989Z,76.56
2022-12-04T13:06:22.843Z,76.39
2022-12-04T13:09:07.101Z,76.35
2022-12-04T13:11:37.104Z,76.70
2022-12-04T13:14:06.408Z,76.07
2022-12-04T13:16:41.860Z,76.23
2022-12-04T13:19:22.091Z,76.95
2022-12-04T13:22:12.336Z,75.75
2022-12-04T13:25:12.178Z,76.12
2022-12-04T13:27:57.044Z,75.69
2022-12-04T13:30:33.160Z,75.27
2022-12-04T13:33:48.400Z,76.22
2022-12-04T13:36:42.126Z,75.91
2022-12-04T13:40:00.498Z,76.06
2022-12-04T13:42:30.262Z,75.21
2022-12-04T13:45:04.102Z,75.90
2022-12-04T13:47:35.644Z,76.23
2022-12-04T13:50:30.052Z,76.96
2022-12-04T13:53:00.712Z,77.22
2022-12-04T13:55:33.784Z,76.56
2022-12-04T13:58:04.921Z,75.49
2022-12-04T14:00:35.631Z,76.15
2022-12-04T14:03:22.047Z,75.25
2022-12-04T14:05:50.401Z,74.99
2022-12-04T14:08:27.047Z,74.25
2022-12-04T14:11:03.507Z,76.03
2022-12-04T14:13:45.072Z,76.26
2022-12-04T14:16:25.163Z,76.18
2022-12-04T14:19:27.883Z,76.31
2022-12-04T14:21:55.845Z,75.99
2022-12-04T14:24:36.915Z,76.98
2022-12-04T14:27:34.627Z,75.77
2022-12-04T14:30:03.555Z,76.12
2022-12-04T14:32:35.421Z,76.36
2022-12-04T14:35:04.506Z,76.83
2022-12-04T14:37:38.688Z,76.08
2022-12-04T14:40:23.564Z,76.40
2022-12-04T14:42:53.008Z,76.63
2022-12-04T14:45:33.524Z,76.47
2022-12-04T14:48:25.860Z,77.99
2022-12-04T14:51:09.291Z,77.25
2022-12-04T14:53:47.196Z,77.44
2022-12-04T14:56:48.404Z,77.53
2022-12-04T14:59:19.986Z,77.08
2022-12-04T15:01:50.442Z,77.40
2022-12-04T15:04:26.429Z,78.03
2022-12-04T15:07:00.155Z,77.70
2022-12-04T15:09:47.398Z,77.51
2022-12-04T15:12:37.039Z,76.52
2022-12-04T15:15:17.355Z,76.39
2022-12-04T15:17:45.237Z,77.18
2022-12-04T15:20:19.802Z,77.79
2022-12-04T15:22:48.933Z,76.55
2022-12-04T15:25:21.855Z,76.34
2022-12-04T15:28:01.476Z,76.70
2022-12-04T15:30:33.785Z,78.38
2022-12-04T15:33:02.235Z,78.72
2022-12-04T15:35:33.942Z,78.81
2022-12-04T15:38:02.413Z,77.91
2022-12-04T15:40:32.251Z,78.36
2022-12-04T15:43:23.538Z,77.48
2022-12-04T15:45:51.407Z,77.72
2022-12-04T15:48:26.926Z,77.94
2022-12-04T15:51:07.140Z,78.97
2022-12-04T15:53:39.545Z,77.75
2022-12-04T15:56:10.859Z,78.60
2022-12-04T15:58:41.605Z,79.09
2022-12-04T16:01:13.124Z,79.17
2022-12-04T16:03:51.222Z,78.38
2022-12-04T16:06:22.048Z,79.56
2022-12-04T16:08:53.500Z,79.25
2022-12-04T16:11:38.184Z,80.42
2022-12-04T16:14:18.065Z,80.33
2022-12-04T16:16:49.405Z,80.60
2022-12-04T16:19:35.740Z,79.79
2022-12-04T16:22:13.488Z,79.66
2022-12-04T16:24:41.487Z,80.32
2022-12-04T16:27:14.634Z,80.98
2022-12-04T16:29:44.613Z,79.47
2022-12-04T16:32:14.000Z,79.73
2022-12-04T16:34:41.771Z,79.93
2022-12-04T16:37:13.592Z,79.02
2022-12-04T16:39:41.771Z,80.04
2022-12-04T16:42:17.397Z,79.63
2022-12-04T16:44:47.348Z,79.74
2022-12-04T16:47:16.499Z,80.50
2022-12-04T16:49:46.306Z,79.35
2022-12-04T16:52:14.550Z,79.72
2022-12-04T16:54:42.496Z,79.91
2022-12-04T16:57:10.531Z,79.02
2022-12-04T16:59:38.733Z,80.22
2022-12-04T17:02:18.158Z,79.58
2022-12-04T17:04:46.021Z,79.89
2022-12-04T17:07:25.108Z,80.19
2022-12-04T17:10:04.840Z,80.40
2022-12-04T17:12:32.649Z,80.90
2022-12-04T17:15:00.335Z,82.27
2022-12-04T17:17:29.432Z,81.68
2022-12-04T17:19:57.460Z,80.83
2022-12-04T17:22:26.447Z,81.36
2022-12-04T17:24:56.243Z,81.44
2022-12-04T17:27:25.963Z,82.06
2022-12-04T17:29:53.718Z,81.46
2022-12-04T17:32:21.566Z,80.94
2022-12-04T17:34:52.859Z,81.16
2022-12-04T17:37:21.328Z,81.73
2022-12-04T17:39:49.252Z,80.91
2022-12-04T17:42:18.195Z,80.88
2022-12-04T17:44:46.320Z,80.61
2022-12-04T17:47:15.169Z,80.10
2022-12-04T17:49:43.028Z,80.30
2022-12-04T17:52:12.498Z,80.63
2022-12-04T17:54:40.268Z,79.94
2022-12-04T17:57:08.019Z,80.41
2022-12-04T17:59:35.797Z,81.11
2022-12-04T18:02:03.703Z,81.08
2022-12-04T18:04:31.512Z,80.75
2022-12-04T18:06:59.337Z,81.38
2022-12-04T18:09:28.428Z,81.30
2022-12-04T18:11:58.376Z,81.23
2022-12-04T18:14:26.564Z,80.78
2022-12-04T18:16:57.332Z,81.01
2022-12-04T18:20:05.935Z,81.90
2022-12-04T18:22:34.046Z,82.79
2022-12-04T18:25:03.364Z,81.70
2022-12-04T18:27:31.194Z,81.28
2022-12-04T18:34:07.437Z,81.18
2022-12-04T18:36:38.625Z,81.17
2022-12-04T18:39:11.565Z,82.37
2022-12-04T18:41:40.864Z,81.07
2022-12-04T18:44:08.604Z,80.55
2022-12-04T18:46:36.698Z,80.76
2022-12-04T18:49:20.155Z,82.15
2022-12-04T18:51:50.231Z,81.16
2022-12-04T18:54:21.541Z,81.32
2022-12-04T18:56:51.511Z,81.50
2022-12-04T18:59:22.240Z,81.60
2022-12-04T19:01:50.769Z,82.30
2022-12-04T19:04:20.374Z,81.53
2022-12-04T19:06:51.342Z,82.95
2022-12-04T19:09:40.824Z,82.47
2022-12-04T19:12:13.210Z,82.62
2022-12-04T19:14:41.284Z,82.13
2022-12-04T19:17:09.339Z,81.38
2022-12-04T19:19:37.169Z,81.85
2022-12-04T19:22:05.334Z,82.43
2022-12-04T19:24:39.641Z,82.71
2022-12-04T19:27:11.080Z,82.38
2022-12-04T19:29:42.304Z,82.60
2022-12-04T19:32:11.707Z,82.62
2022-12-04T19:34:39.566Z,81.85
2022-12-04T19:37:07.482Z,81.16
2022-12-04T19:39:35.297Z,82.20
2022-12-04T19:42:03.060Z,81.70
2022-12-04T19:47:20.394Z,82.05
2022-12-04T19:49:48.914Z,81.94
2022-12-04T19:52:17.479Z,82.04
2022-12-04T19:54:45.415Z,82.18
2022-12-04T19:57:14.561Z,82.11
2022-12-04T19:59:46.325Z,82.01
2022-12-04T20:02:15.397Z,82.14
2022-12-04T20:04:44.867Z,82.70
2022-12-04T20:07:13.040Z,82.63
2022-12-04T20:09:40.965Z,81.60
2022-12-04T20:12:09.054Z,81.11
2022-12-04T20:14:37.060Z,82.59
2022-12-04T20:17:05.192Z,82.50
2022-12-04T20:19:33.335Z,81.64
2022-12-04T20:22:02.528Z,81.85
2022-12-04T20:24:30.321Z,81.61
2022-12-04T20:26:58.146Z,81.12
2022-12-04T20:29:26.052Z,81.50
2022-12-04T20:31:53.847Z,81.13
2022-12-04T20:34:21.668Z,81.39
2022-12-04T20:36:50.549Z,81.06
2022-12-04T20:39:21.635Z,81.43
2022-12-04T20:41:49.488Z,81.38
2022-12-04T20:44:20.896Z,80.90
2022-12-04T20:46:49.657Z,80.66
2022-12-04T20:49:22.092Z,80.92
2022-12-04T20:52:05.745Z,81.39
2022-12-04T20:54:41.052Z,80.19
2022-12-04T20:57:31.202Z,80.54
2022-12-04T20:59:59.214Z,80.61
2022-12-04T21:02:27.458Z,80.30
2022-12-04T21:04:55.257Z,80.12
2022-12-04T21:07:23.040Z,80.35
2022-12-04T21:09:52.388Z,80.16
2022-12-04T21:12:42.983Z,81.17
2022-12-04T21:15:29.154Z,81.25
2022-12-04T21:17:56.867Z,81.40
2022-12-04T21:20:24.718Z,81.36
2022-12-04T21:22:52.576Z,81.34
2022-12-04T21:25:21.829Z,81.84
2022-12-04T21:27:49.565Z,81.55
2022-12-04T21:30:17.349Z,80.95
2022-12-04T21:32:45.211Z,81.13
2022-12-04T21:35:25.289Z,81.71
2022-12-04T21:37:52.978Z,81.89
2022-12-04T21:40:22.127Z,81.27
2022-12-04T21:42:49.900Z,81.10
2022-12-04T21:45:17.765Z,82.24
2022-12-04T21:47:45.556Z,81.53
2022-12-04T21:50:13.357Z,81.49
2022-12-04T21:52:42.167Z,81.51
2022-12-04T21:55:10.704Z,81.16
2022-12-04T21:57:43.193Z,80.61
2022-12-04T22:00:12.473Z,81.06
2022-12-04T22:02:40.320Z,81.14
2022-12-04T22:05:09.152Z,80.90
2022-12-04T22:07:36.967Z,80.69
2022-12-04T22:10:10.390Z,81.15
2022-12-04T22:12:49.729Z,81.25
2022-12-04T22:15:19.145Z,81.26
2022-12-04T22:17:46.931Z,82.00
2022-12-04T22:20:16.330Z,81.87
2022-12-04T22:22:44.206Z,82.09
2022-12-04T22:25:12.104Z,81.70
2022-12-04T22:27:41.160Z,81.63
2022-12-04T22:30:10.412Z,81.49
2022-12-04T22:33:00.417Z,81.40
2022-12-04T22:35:28.258Z,80.52
2022-12-04T22:37:56.044Z,80.84
2022-12-04T22:40:23.744Z,80.88
2022-12-04T22:42:52.979Z,81.19
2022-12-04T22:45:20.760Z,81.42
2022-12-04T22:47:48.534Z,81.34
2022-12-04T22:50:16.280Z,81.60
2022-12-04T22:52:44.671Z,81.55
2022-12-04T22:55:12.761Z,81.26
2022-12-04T22:57:40.501Z,81.23
2022-12-04T23:00:11.277Z,81.12
2022-12-04T23:02:38.936Z,81.43
2022-12-04T23:05:07.205Z,81.68
2022-12-04T23:07:35.055Z,81.76
2022-12-04T23:10:02.849Z,81.78
2022-12-04T23:12:30.562Z,81.88
2022-12-04T23:14:58.589Z,82.25
2022-12-04T23:17:27.696Z,82.10
2022-12-04T23:19:55.738Z,82.10
2022-12-04T23:22:23.824Z,82.54
2022-12-04T23:24:51.598Z,82.24
2022-12-04T23:27:19.804Z,82.22
2022-12-04T23:29:55.206Z,82.91
2022-12-04T23:32:22.943Z,82.07
2022-12-04T23:34:52.942Z,81.89
2022-12-04T23:37:20.829Z,81.96
2022-12-04T23:39:48.601Z,82.78
2022-12-04T23:42:16.388Z,83.28
2022-12-04T23:44:44.113Z,83.23
2022-12-04T23:47:12.110Z,82.52
2022-12-04T23:49:39.872Z,82.41
2022-12-04T23:52:08.999Z,82.23
2022-12-04T23:54:37.668Z,82.68
2022-12-04T23:57:05.617Z,82.67
2022-12-04T23:59:33.459Z,82.82
